createdAt,value
2022-09-04T02:51:53.415Z,93.00
2022-09-04T02:54:40.411Z,96.10
2022-09-04T02:57:21.684Z,96.00
2022-09-04T03:00:04.760Z,96.00
2022-09-04T03:02:39.053Z,95.90
2022-09-04T03:05:18.779Z,95.90
2022-09-04T03:07:52.333Z,96.10
2022-09-04T03:10:26.226Z,96.00
2022-09-04T03:13:01.413Z,96.00
2022-09-04T03:15:38.429Z,96.10
2022-09-04T03:18:17.098Z,96.00
2022-09-04T03:20:52.904Z,96.00
2022-09-04T03:23:25.181Z,96.10
2022-09-04T03:26:11.089Z,96.20
2022-09-04T03:28:51.987Z,96.10
2022-09-04T03:31:30.051Z,96.30
2022-09-04T03:34:14.115Z,96.30
2022-09-04T03:36:52.094Z,96.30
2022-09-04T03:39:27.134Z,96.30
2022-09-04T03:42:05.915Z,96.40
2022-09-04T03:44:46.350Z,96.40
2022-09-04T03:47:31.530Z,96.50
2022-09-04T03:50:12.510Z,96.40
2022-09-04T03:52:50.677Z,96.30
2022-09-04T03:55:41.155Z,96.20
2022-09-04T03:58:23.008Z,96.10
2022-09-04T04:00:58.802Z,95.90
2022-09-04T04:03:47.114Z,95.50
2022-09-04T04:06:24.739Z,95.30
2022-09-04T06:52:00.854Z,95.50
2022-09-04T06:54:43.529Z,94.00
2022-09-04T06:57:31.630Z,94.00
2022-09-04T07:00:08.951Z,94.00
2022-09-04T07:02:54.890Z,93.90
2022-09-04T07:19:08.808Z,93.80
2022-09-04T07:21:52.239Z,93.40
2022-09-04T07:24:45.490Z,93.50
2022-09-04T07:27:18.951Z,93.30
2022-09-04T07:29:54.431Z,93.30
2022-09-04T07:32:35.175Z,93.30
2022-09-04T07:35:12.107Z,93.30
2022-09-04T07:37:47.181Z,93.20
2022-09-04T07:40:18.495Z,93.20
2022-09-04T07:42:51.948Z,93.20
2022-09-04T07:45:39.464Z,93.20
2022-09-04T07:48:24.008Z,93.10
2022-09-04T07:51:05.991Z,93.20
2022-09-04T07:54:09.150Z,93.10
2022-09-04T07:56:56.104Z,93.10
2022-09-04T07:59:43.812Z,93.00
2022-09-04T08:02:35.714Z,93.00
2022-09-04T08:05:21.376Z,93.00
2022-09-04T08:08:29.638Z,93.00
2022-09-04T08:11:19.361Z,93.00
2022-09-04T08:14:16.817Z,93.00
2022-09-04T08:16:53.501Z,92.90
2022-09-04T08:19:35.895Z,92.90
2022-09-04T08:22:07.881Z,92.90
2022-09-04T08:25:06.455Z,92.70
2022-09-04T08:27:56.439Z,92.70
2022-09-04T08:30:24.678Z,92.80
2022-09-04T08:33:21.879Z,92.80
2022-09-04T08:35:57.615Z,92.90
2022-09-04T08:38:45.920Z,93.00
2022-09-04T08:41:54.899Z,93.20
2022-09-04T08:45:09.215Z,93.60
2022-09-04T08:48:11.226Z,93.60
2022-09-04T08:54:11.045Z,93.90
2022-09-04T08:56:47.411Z,94.10
2022-09-04T08:59:57.715Z,94.10
2022-09-04T09:03:22.916Z,94.90
2022-09-04T09:06:29.693Z,94.80
2022-09-04T09:09:33.915Z,94.80
2022-09-04T09:12:22.908Z,94.80
2022-09-04T09:15:24.518Z,95.10
2022-09-04T09:18:03.647Z,95.10
2022-09-04T17:40:57.152Z,95.10
2022-09-04T17:41:40.329Z,92.80
2022-09-04T17:44:13.892Z,92.80
2022-09-04T17:46:49.790Z,92.90
2022-09-04T17:49:22.127Z,92.90
2022-09-04T17:52:01.635Z,92.90
2022-09-04T17:54:33.953Z,92.90
2022-09-04T17:57:07.275Z,92.90
2022-09-04T17:59:45.499Z,92.90
2022-09-04T18:02:19.222Z,92.90
2022-09-04T18:04:54.739Z,92.80
2022-09-04T18:08:07.781Z,92.80
2022-09-04T18:10:28.592Z,92.90
2022-09-04T18:13:08.899Z,92.90
2022-09-04T18:16:03.183Z,92.90
2022-09-04T18:18:40.583Z,93.00
2022-09-04T18:21:17.340Z,93.10
2022-09-04T18:23:55.992Z,93.30
